sensor_id;sensor_type;location;lat;lon;timestamp;pressure;altitude;pressure_sealevel;temperature
71630;BMP280;59479;51.902;8.212;2023-04-06T00:01:01;101326.63;;;6.04
71630;BMP280;59479;51.902;8.212;2023-04-06T00:03:26;101324.09;;;6.03
71630;BMP280;59479;51.902;8.212;2023-04-06T00:05:51;101314.72;;;5.96
71630;BMP280;59479;51.902;8.212;2023-04-06T00:08:17;101317.09;;;5.91
71630;BMP280;59479;51.902;8.212;2023-04-06T00:10:42;101310.28;;;5.87
71630;BMP280;59479;51.902;8.212;2023-04-06T00:13:08;101307.06;;;5.90
71630;BMP280;59479;51.902;8.212;2023-04-06T00:15:33;101311.13;;;5.86
71630;BMP280;59479;51.902;8.212;2023-04-06T00:17:59;101298.53;;;5.84
71630;BMP280;59479;51.902;8.212;2023-04-06T00:20:25;101301.88;;;5.83
71630;BMP280;59479;51.902;8.212;2023-04-06T00:22:50;101301.75;;;5.80
71630;BMP280;59479;51.902;8.212;2023-04-06T00:25:16;101299.97;;;5.76
71630;BMP280;59479;51.902;8.212;2023-04-06T00:27:42;101298.06;;;5.69
71630;BMP280;59479;51.902;8.212;2023-04-06T00:30:08;101294.00;;;5.72
71630;BMP280;59479;51.902;8.212;2023-04-06T00:32:34;101290.31;;;5.60
71630;BMP280;59479;51.902;8.212;2023-04-06T00:35:02;101291.19;;;5.62
71630;BMP280;59479;51.902;8.212;2023-04-06T00:37:27;101285.47;;;5.64
71630;BMP280;59479;51.902;8.212;2023-04-06T00:39:53;101281.94;;;5.58
71630;BMP280;59479;51.902;8.212;2023-04-06T00:42:21;101289.22;;;5.52
71630;BMP280;59479;51.902;8.212;2023-04-06T00:44:52;101275.88;;;5.50
71630;BMP280;59479;51.902;8.212;2023-04-06T00:47:18;101275.69;;;5.44
71630;BMP280;59479;51.902;8.212;2023-04-06T00:49:43;101278.88;;;5.40
71630;BMP280;59479;51.902;8.212;2023-04-06T00:52:08;101274.91;;;5.45
71630;BMP280;59479;51.902;8.212;2023-04-06T00:54:34;101272.88;;;5.34
71630;BMP280;59479;51.902;8.212;2023-04-06T00:56:59;101270.31;;;5.32
71630;BMP280;59479;51.902;8.212;2023-04-06T00:59:28;101264.59;;;5.35
71630;BMP280;59479;51.902;8.212;2023-04-06T01:01:53;101255.53;;;5.37
71630;BMP280;59479;51.902;8.212;2023-04-06T01:04:19;101255.19;;;5.26
71630;BMP280;59479;51.902;8.212;2023-04-06T01:06:44;101252.09;;;5.33
71630;BMP280;59479;51.902;8.212;2023-04-06T01:09:10;101249.81;;;5.41
71630;BMP280;59479;51.902;8.212;2023-04-06T01:11:36;101255.38;;;5.32
71630;BMP280;59479;51.902;8.212;2023-04-06T01:14:03;101252.25;;;5.38
71630;BMP280;59479;51.902;8.212;2023-04-06T01:16:28;101252.97;;;5.35
71630;BMP280;59479;51.902;8.212;2023-04-06T01:18:54;101249.75;;;5.39
71630;BMP280;59479;51.902;8.212;2023-04-06T01:21:19;101243.22;;;5.41
71630;BMP280;59479;51.902;8.212;2023-04-06T01:23:45;101248.34;;;5.47
71630;BMP280;59479;51.902;8.212;2023-04-06T01:26:11;101248.22;;;5.42
71630;BMP280;59479;51.902;8.212;2023-04-06T01:28:37;101242.28;;;5.39
71630;BMP280;59479;51.902;8.212;2023-04-06T01:31:03;101246.50;;;5.40
71630;BMP280;59479;51.902;8.212;2023-04-06T01:33:28;101239.00;;;5.40
71630;BMP280;59479;51.902;8.212;2023-04-06T01:35:54;101237.41;;;5.42
71630;BMP280;59479;51.902;8.212;2023-04-06T01:38:20;101234.13;;;5.43
71630;BMP280;59479;51.902;8.212;2023-04-06T01:40:45;101235.53;;;5.35
71630;BMP280;59479;51.902;8.212;2023-04-06T01:43:11;101231.44;;;5.37
71630;BMP280;59479;51.902;8.212;2023-04-06T01:45:36;101232.16;;;5.33
71630;BMP280;59479;51.902;8.212;2023-04-06T01:48:01;101224.72;;;5.35
71630;BMP280;59479;51.902;8.212;2023-04-06T01:50:27;101230.56;;;5.35
71630;BMP280;59479;51.902;8.212;2023-04-06T01:52:52;101223.84;;;5.34
71630;BMP280;59479;51.902;8.212;2023-04-06T01:55:18;101219.78;;;5.36
71630;BMP280;59479;51.902;8.212;2023-04-06T01:57:43;101222.97;;;5.32
71630;BMP280;59479;51.902;8.212;2023-04-06T02:00:09;101217.09;;;5.30
71630;BMP280;59479;51.902;8.212;2023-04-06T02:02:34;101221.25;;;5.30
71630;BMP280;59479;51.902;8.212;2023-04-06T02:05:00;101221.25;;;5.30
71630;BMP280;59479;51.902;8.212;2023-04-06T02:07:25;101217.81;;;5.26
71630;BMP280;59479;51.902;8.212;2023-04-06T02:09:54;101220.22;;;5.23
71630;BMP280;59479;51.902;8.212;2023-04-06T02:12:20;101210.97;;;5.21
71630;BMP280;59479;51.902;8.212;2023-04-06T02:14:45;101218.44;;;5.19
71630;BMP280;59479;51.902;8.212;2023-04-06T02:17:10;101216.84;;;5.21
71630;BMP280;59479;51.902;8.212;2023-04-06T02:19:36;101215.03;;;5.17
71630;BMP280;59479;51.902;8.212;2023-04-06T02:22:01;101210.63;;;5.09
71630;BMP280;59479;51.902;8.212;2023-04-06T02:24:26;101214.75;;;5.08
71630;BMP280;59479;51.902;8.212;2023-04-06T02:26:52;101209.69;;;5.05
71630;BMP280;59479;51.902;8.212;2023-04-06T02:29:17;101217.16;;;5.05
71630;BMP280;59479;51.902;8.212;2023-04-06T02:31:43;101217.91;;;5.03
71630;BMP280;59479;51.902;8.212;2023-04-06T02:34:08;101214.56;;;5.02
71630;BMP280;59479;51.902;8.212;2023-04-06T02:36:36;101217.75;;;4.99
71630;BMP280;59479;51.902;8.212;2023-04-06T02:39:01;101207.81;;;4.99
71630;BMP280;59479;51.902;8.212;2023-04-06T02:41:27;101225.13;;;4.96
71630;BMP280;59479;51.902;8.212;2023-04-06T02:43:52;101216.03;;;4.96
71630;BMP280;59479;51.902;8.212;2023-04-06T02:46:17;101215.13;;;4.94
71630;BMP280;59479;51.902;8.212;2023-04-06T02:48:43;101215.88;;;4.92
71630;BMP280;59479;51.902;8.212;2023-04-06T02:51:08;101213.44;;;4.93
71630;BMP280;59479;51.902;8.212;2023-04-06T02:53:34;101219.16;;;4.91
71630;BMP280;59479;51.902;8.212;2023-04-06T02:55:59;101213.25;;;4.87
71630;BMP280;59479;51.902;8.212;2023-04-06T02:58:25;101219.09;;;4.88
71630;BMP280;59479;51.902;8.212;2023-04-06T03:00:50;101209.91;;;4.87
71630;BMP280;59479;51.902;8.212;2023-04-06T03:03:16;101208.13;;;4.83
71630;BMP280;59479;51.902;8.212;2023-04-06T03:05:44;101209.72;;;4.81
71630;BMP280;59479;51.902;8.212;2023-04-06T03:08:10;101211.34;;;4.80
71630;BMP280;59479;51.902;8.212;2023-04-06T03:10:36;101210.53;;;4.80
71630;BMP280;59479;51.902;8.212;2023-04-06T03:13:02;101204.72;;;4.81
71630;BMP280;59479;51.902;8.212;2023-04-06T03:15:27;101204.56;;;4.75
71630;BMP280;59479;51.902;8.212;2023-04-06T03:17:52;101204.59;;;4.76
71630;BMP280;59479;51.902;8.212;2023-04-06T03:20:18;101200.34;;;4.74
71630;BMP280;59479;51.902;8.212;2023-04-06T03:22:43;101202.84;;;4.74
71630;BMP280;59479;51.902;8.212;2023-04-06T03:25:09;101211.06;;;4.71
71630;BMP280;59479;51.902;8.212;2023-04-06T03:27:34;101201.06;;;4.70
71630;BMP280;59479;51.902;8.212;2023-04-06T03:30:00;101203.59;;;4.71
71630;BMP280;59479;51.902;8.212;2023-04-06T03:32:25;101204.34;;;4.69
71630;BMP280;59479;51.902;8.212;2023-04-06T03:34:51;101202.56;;;4.65
71630;BMP280;59479;51.902;8.212;2023-04-06T03:37:17;101198.47;;;4.67
71630;BMP280;59479;51.902;8.212;2023-04-06T03:39:42;101202.56;;;4.65
71630;BMP280;59479;51.902;8.212;2023-04-06T03:42:08;101204.94;;;4.62
71630;BMP280;59479;51.902;8.212;2023-04-06T03:44:33;101204.06;;;4.60
71630;BMP280;59479;51.902;8.212;2023-04-06T03:46:59;101207.19;;;4.55
71630;BMP280;59479;51.902;8.212;2023-04-06T03:49:27;101205.50;;;4.54
71630;BMP280;59479;51.902;8.212;2023-04-06T03:51:53;101200.34;;;4.49
71630;BMP280;59479;51.902;8.212;2023-04-06T03:54:19;101205.94;;;4.42
71630;BMP280;59479;51.902;8.212;2023-04-06T03:56:47;101206.03;;;4.45
71630;BMP280;59479;51.902;8.212;2023-04-06T03:59:20;101208.53;;;4.45
71630;BMP280;59479;51.902;8.212;2023-04-06T04:01:49;101205.94;;;4.42
71630;BMP280;59479;51.902;8.212;2023-04-06T04:04:14;101201.97;;;4.47
71630;BMP280;59479;51.902;8.212;2023-04-06T04:53:54;101215.00;;;3.94
71630;BMP280;59479;51.902;8.212;2023-04-06T04:56:24;101216.78;;;3.96
71630;BMP280;59479;51.902;8.212;2023-04-06T04:59:43;101210.22;;;3.98
71630;BMP280;59479;51.902;8.212;2023-04-06T05:05:54;101211.16;;;4.02
71630;BMP280;59479;51.902;8.212;2023-04-06T05:08:20;101211.94;;;4.01
71630;BMP280;59479;51.902;8.212;2023-04-06T05:10:45;101207.66;;;3.97
71630;BMP280;59479;51.902;8.212;2023-04-06T05:13:11;101208.56;;;3.99
71630;BMP280;59479;51.902;8.212;2023-04-06T05:15:37;101213.34;;;3.93
71630;BMP280;59479;51.902;8.212;2023-04-06T05:18:07;101209.34;;;3.98
71630;BMP280;59479;51.902;8.212;2023-04-06T05:20:33;101215.25;;;4.00
71630;BMP280;59479;51.902;8.212;2023-04-06T05:22:59;101223.72;;;4.05
71630;BMP280;59479;51.902;8.212;2023-04-06T05:25:24;101211.28;;;4.05
71630;BMP280;59479;51.902;8.212;2023-04-06T05:27:50;101207.84;;;4.03
71630;BMP280;59479;51.902;8.212;2023-04-06T05:30:15;101217.03;;;4.04
71630;BMP280;59479;51.902;8.212;2023-04-06T05:32:41;101216.25;;;4.05
71630;BMP280;59479;51.902;8.212;2023-04-06T05:35:08;101216.31;;;4.06
71630;BMP280;59479;51.902;8.212;2023-04-06T05:37:33;101217.91;;;4.06
71630;BMP280;59479;51.902;8.212;2023-04-06T05:39:58;101217.09;;;4.05
71630;BMP280;59479;51.902;8.212;2023-04-06T05:42:24;101212.94;;;4.06
71630;BMP280;59479;51.902;8.212;2023-04-06T05:44:50;101208.09;;;4.09
71630;BMP280;59479;51.902;8.212;2023-04-06T05:47:18;101218.09;;;4.10
71630;BMP280;59479;51.902;8.212;2023-04-06T05:49:44;101215.50;;;4.07
71630;BMP280;59479;51.902;8.212;2023-04-06T05:52:17;101218.16;;;4.12
71630;BMP280;59479;51.902;8.212;2023-04-06T05:54:42;101216.44;;;4.11
71630;BMP280;59479;51.902;8.212;2023-04-06T05:57:11;101214.53;;;4.04
71630;BMP280;59479;51.902;8.212;2023-04-06T05:59:37;101214.75;;;4.10
71630;BMP280;59479;51.902;8.212;2023-04-06T06:02:02;101217.44;;;4.16
71630;BMP280;59479;51.902;8.212;2023-04-06T06:04:27;101214.22;;;4.18
71630;BMP280;59479;51.902;8.212;2023-04-06T06:06:53;101219.94;;;4.16
71630;BMP280;59479;51.902;8.212;2023-04-06T06:09:18;101224.19;;;4.18
71630;BMP280;59479;51.902;8.212;2023-04-06T06:11:46;101210.09;;;4.18
71630;BMP280;59479;51.902;8.212;2023-04-06T06:14:12;101215.19;;;4.21
71630;BMP280;59479;51.902;8.212;2023-04-06T06:16:37;101203.63;;;4.23
71630;BMP280;59479;51.902;8.212;2023-04-06T06:19:03;101217.44;;;4.16
71630;BMP280;59479;51.902;8.212;2023-04-06T06:21:28;101209.16;;;4.15
71630;BMP280;59479;51.902;8.212;2023-04-06T06:23:53;101204.41;;;4.22
71630;BMP280;59479;51.902;8.212;2023-04-06T06:26:19;101199.59;;;4.27
71630;BMP280;59479;51.902;8.212;2023-04-06T06:28:45;101201.31;;;4.28
71630;BMP280;59479;51.902;8.212;2023-04-06T06:31:10;101201.50;;;4.34
71630;BMP280;59479;51.902;8.212;2023-04-06T06:33:36;101200.66;;;4.33
71630;BMP280;59479;51.902;8.212;2023-04-06T06:36:01;101199.13;;;4.37
71630;BMP280;59479;51.902;8.212;2023-04-06T06:38:26;101204.94;;;4.37
71630;BMP280;59479;51.902;8.212;2023-04-06T06:40:52;101204.09;;;4.37
71630;BMP280;59479;51.902;8.212;2023-04-06T06:43:17;101202.72;;;4.45
71630;BMP280;59479;51.902;8.212;2023-04-06T06:45:43;101202.06;;;4.50
71630;BMP280;59479;51.902;8.212;2023-04-06T06:48:08;101201.34;;;4.54
71630;BMP280;59479;51.902;8.212;2023-04-06T06:50:34;101198.13;;;4.57
71630;BMP280;59479;51.902;8.212;2023-04-06T06:52:59;101193.38;;;4.64
71630;BMP280;59479;51.902;8.212;2023-04-06T06:55:25;101200.91;;;4.65
71630;BMP280;59479;51.902;8.212;2023-04-06T06:57:52;101191.91;;;4.69
71630;BMP280;59479;51.902;8.212;2023-04-06T07:00:18;101191.25;;;4.74
71630;BMP280;59479;51.902;8.212;2023-04-06T07:02:45;101185.63;;;4.80
71630;BMP280;59479;51.902;8.212;2023-04-06T07:05:10;101189.88;;;4.84
71630;BMP280;59479;51.902;8.212;2023-04-06T07:07:36;101187.34;;;4.82
71630;BMP280;59479;51.902;8.212;2023-04-06T07:10:01;101180.81;;;4.86
71630;BMP280;59479;51.902;8.212;2023-04-06T07:12:27;101187.72;;;4.94
71630;BMP280;59479;51.902;8.212;2023-04-06T07:14:52;101180.34;;;4.97
71630;BMP280;59479;51.902;8.212;2023-04-06T07:17:18;101199.72;;;5.05
71630;BMP280;59479;51.902;8.212;2023-04-06T07:19:43;101184.09;;;5.11
71630;BMP280;59479;51.902;8.212;2023-04-06T07:22:08;101180.16;;;5.17
71630;BMP280;59479;51.902;8.212;2023-04-06T07:24:34;101183.66;;;5.24
71630;BMP280;59479;51.902;8.212;2023-04-06T07:27:00;101187.19;;;5.30
71630;BMP280;59479;51.902;8.212;2023-04-06T07:29:28;101181.47;;;5.34
71630;BMP280;59479;51.902;8.212;2023-04-06T07:31:54;101188.38;;;5.41
71630;BMP280;59479;51.902;8.212;2023-04-06T07:34:20;101182.66;;;5.45
71630;BMP280;59479;51.902;8.212;2023-04-06T07:36:46;101180.34;;;5.51
71630;BMP280;59479;51.902;8.212;2023-04-06T07:39:11;101174.69;;;5.56
71630;BMP280;59479;51.902;8.212;2023-04-06T07:41:37;101174.09;;;5.65
71630;BMP280;59479;51.902;8.212;2023-04-06T07:44:03;101166.63;;;5.65
71630;BMP280;59479;51.902;8.212;2023-04-06T07:46:28;101170.25;;;5.76
71630;BMP280;59479;51.902;8.212;2023-04-06T07:48:54;101165.38;;;5.79
71630;BMP280;59479;51.902;8.212;2023-04-06T07:51:19;101159.72;;;5.85
71630;BMP280;59479;51.902;8.212;2023-04-06T07:53:45;101161.56;;;5.91
71630;BMP280;59479;51.902;8.212;2023-04-06T07:56:10;101160.88;;;5.96
71630;BMP280;59479;51.902;8.212;2023-04-06T07:58:37;101158.66;;;6.07
71630;BMP280;59479;51.902;8.212;2023-04-06T08:01:02;101152.91;;;6.09
71630;BMP280;59479;51.902;8.212;2023-04-06T08:03:28;101155.50;;;6.14
71630;BMP280;59479;51.902;8.212;2023-04-06T08:05:53;101157.31;;;6.18
71630;BMP280;59479;51.902;8.212;2023-04-06T08:08:19;101161.72;;;6.29
71630;BMP280;59479;51.902;8.212;2023-04-06T08:10:46;101162.69;;;6.32
71630;BMP280;59479;51.902;8.212;2023-04-06T08:13:12;101160.53;;;6.46
71630;BMP280;59479;51.902;8.212;2023-04-06T08:15:37;101150.88;;;6.59
71630;BMP280;59479;51.902;8.212;2023-04-06T08:18:02;101155.28;;;6.70
71630;BMP280;59479;51.902;8.212;2023-04-06T08:20:28;101157.81;;;6.72
71630;BMP280;59479;51.902;8.212;2023-04-06T08:22:53;101153.88;;;6.81
71630;BMP280;59479;51.902;8.212;2023-04-06T08:25:18;101154.16;;;6.93
71630;BMP280;59479;51.902;8.212;2023-04-06T08:27:44;101151.84;;;7.02
71630;BMP280;59479;51.902;8.212;2023-04-06T08:30:09;101143.03;;;7.16
71630;BMP280;59479;51.902;8.212;2023-04-06T08:32:35;101146.50;;;7.22
71630;BMP280;59479;51.902;8.212;2023-04-06T08:35:00;101152.50;;;7.30
71630;BMP280;59479;51.902;8.212;2023-04-06T08:37:26;101144.50;;;7.46
71630;BMP280;59479;51.902;8.212;2023-04-06T08:39:51;101157.91;;;7.50
71630;BMP280;59479;51.902;8.212;2023-04-06T08:42:20;101152.38;;;7.65
71630;BMP280;59479;51.902;8.212;2023-04-06T08:44:48;101146.81;;;7.78
71630;BMP280;59479;51.902;8.212;2023-04-06T08:47:13;101143.78;;;7.93
71630;BMP280;59479;51.902;8.212;2023-04-06T08:49:39;101131.44;;;8.03
71630;BMP280;59479;51.902;8.212;2023-04-06T08:52:06;101139.28;;;8.19
71630;BMP280;59479;51.902;8.212;2023-04-06T08:54:33;101126.97;;;8.31
71630;BMP280;59479;51.902;8.212;2023-04-06T08:56:59;101131.19;;;8.34
71630;BMP280;59479;51.902;8.212;2023-04-06T08:59:25;101128.69;;;8.35
71630;BMP280;59479;51.902;8.212;2023-04-06T09:01:51;101126.34;;;8.42
71630;BMP280;59479;51.902;8.212;2023-04-06T09:04:16;101128.03;;;8.45
71630;BMP280;59479;51.902;8.212;2023-04-06T09:06:43;101129.84;;;8.53
71630;BMP280;59479;51.902;8.212;2023-04-06T09:09:08;101127.72;;;8.78
71630;BMP280;59479;51.902;8.212;2023-04-06T09:11:48;101137.03;;;8.87
71630;BMP280;59479;51.902;8.212;2023-04-06T09:14:14;101123.00;;;8.98
71630;BMP280;59479;51.902;8.212;2023-04-06T09:16:41;101118.84;;;9.00
71630;BMP280;59479;51.902;8.212;2023-04-06T09:19:08;101115.69;;;9.13
71630;BMP280;59479;51.902;8.212;2023-04-06T09:21:34;101105.03;;;9.28
71630;BMP280;59479;51.902;8.212;2023-04-06T09:24:00;101120.06;;;9.27
71630;BMP280;59479;51.902;8.212;2023-04-06T09:26:26;101109.28;;;9.32
71630;BMP280;59479;51.902;8.212;2023-04-06T09:28:57;101106.09;;;9.44
71630;BMP280;59479;51.902;8.212;2023-04-06T09:31:29;101106.97;;;9.50
71630;BMP280;59479;51.902;8.212;2023-04-06T09:33:56;101104.63;;;9.62
71630;BMP280;59479;51.902;8.212;2023-04-06T09:36:35;101103.09;;;9.76
71630;BMP280;59479;51.902;8.212;2023-04-06T09:39:04;101112.44;;;9.89
71630;BMP280;59479;51.902;8.212;2023-04-06T09:41:32;101099.16;;;9.99
71630;BMP280;59479;51.902;8.212;2023-04-06T09:49:03;101098.56;;;10.23
71630;BMP280;59479;51.902;8.212;2023-04-06T09:51:32;101095.38;;;10.39
71630;BMP280;59479;51.902;8.212;2023-04-06T09:53:59;101087.84;;;10.45
71630;BMP280;59479;51.902;8.212;2023-04-06T09:56:29;101088.75;;;10.51
71630;BMP280;59479;51.902;8.212;2023-04-06T09:59:02;101090.56;;;10.72
71630;BMP280;59479;51.902;8.212;2023-04-06T10:01:29;101086.41;;;10.77
71630;BMP280;59479;51.902;8.212;2023-04-06T10:06:39;101089.63;;;10.58
71630;BMP280;59479;51.902;8.212;2023-04-06T10:09:06;101090.59;;;10.75
71630;BMP280;59479;51.902;8.212;2023-04-06T10:11:33;101083.13;;;10.87
71630;BMP280;59479;51.902;8.212;2023-04-06T10:14:00;101080.75;;;11.13
71630;BMP280;59479;51.902;8.212;2023-04-06T10:16:25;101080.75;;;11.15
71630;BMP280;59479;51.902;8.212;2023-04-06T10:18:57;101081.63;;;11.23
71630;BMP280;59479;51.902;8.212;2023-04-06T10:21:25;101076.69;;;11.37
71630;BMP280;59479;51.902;8.212;2023-04-06T10:23:58;101070.03;;;11.53
71630;BMP280;59479;51.902;8.212;2023-04-06T10:26:24;101070.03;;;11.45
71630;BMP280;59479;51.902;8.212;2023-04-06T10:28:50;101070.03;;;11.48
71630;BMP280;59479;51.902;8.212;2023-04-06T10:31:27;101065.03;;;11.62
71630;BMP280;59479;51.902;8.212;2023-04-06T10:34:00;101071.81;;;11.82
71630;BMP280;59479;51.902;8.212;2023-04-06T10:36:33;101072.63;;;11.82
71630;BMP280;59479;51.902;8.212;2023-04-06T10:39:01;101063.38;;;11.80
71630;BMP280;59479;51.902;8.212;2023-04-06T10:41:44;101068.47;;;11.92
71630;BMP280;59479;51.902;8.212;2023-04-06T10:44:21;101057.56;;;12.15
71630;BMP280;59479;51.902;8.212;2023-04-06T10:46:57;101052.53;;;12.25
71630;BMP280;59479;51.902;8.212;2023-04-06T10:49:25;101052.53;;;12.28
71630;BMP280;59479;51.902;8.212;2023-04-06T10:51:55;101045.81;;;12.44
71630;BMP280;59479;51.902;8.212;2023-04-06T10:54:22;101041.56;;;12.55
71630;BMP280;59479;51.902;8.212;2023-04-06T10:56:49;101046.59;;;12.56
71630;BMP280;59479;51.902;8.212;2023-04-06T10:59:21;101037.34;;;12.67
71630;BMP280;59479;51.902;8.212;2023-04-06T11:01:47;101037.31;;;12.71
71630;BMP280;59479;51.902;8.212;2023-04-06T11:04:19;101039.88;;;12.82
71630;BMP280;59479;51.902;8.212;2023-04-06T11:06:49;101044.88;;;12.73
71630;BMP280;59479;51.902;8.212;2023-04-06T11:09:26;101037.31;;;12.89
71630;BMP280;59479;51.902;8.212;2023-04-06T11:11:51;101032.22;;;13.04
71630;BMP280;59479;51.902;8.212;2023-04-06T11:14:17;101040.66;;;12.97
71630;BMP280;59479;51.902;8.212;2023-04-06T11:16:46;101040.69;;;12.79
71630;BMP280;59479;51.902;8.212;2023-04-06T11:19:12;101035.66;;;12.87
71630;BMP280;59479;51.902;8.212;2023-04-06T11:21:50;101034.78;;;12.94
71630;BMP280;59479;51.902;8.212;2023-04-06T11:26:49;101032.28;;;12.86
71630;BMP280;59479;51.902;8.212;2023-04-06T11:29:19;101026.34;;;13.01
71630;BMP280;59479;51.902;8.212;2023-04-06T11:31:47;101022.94;;;13.13
71630;BMP280;59479;51.902;8.212;2023-04-06T11:34:23;101027.13;;;13.16
71630;BMP280;59479;51.902;8.212;2023-04-06T11:36:54;101012.00;;;13.16
71630;BMP280;59479;51.902;8.212;2023-04-06T11:39:21;101022.00;;;13.31
71630;BMP280;59479;51.902;8.212;2023-04-06T11:41:48;101023.56;;;13.52
71630;BMP280;59479;51.902;8.212;2023-04-06T11:44:14;101023.50;;;13.64
71630;BMP280;59479;51.902;8.212;2023-04-06T11:46:39;101014.19;;;13.75
71630;BMP280;59479;51.902;8.212;2023-04-06T11:49:04;101012.41;;;13.86
71630;BMP280;59479;51.902;8.212;2023-04-06T11:51:35;101009.03;;;13.87
71630;BMP280;59479;51.902;8.212;2023-04-06T11:54:00;101010.69;;;13.91
71630;BMP280;59479;51.902;8.212;2023-04-06T11:56:29;100998.78;;;14.09
71630;BMP280;59479;51.902;8.212;2023-04-06T11:58:56;101000.44;;;14.13
71630;BMP280;59479;51.902;8.212;2023-04-06T12:01:22;101002.91;;;14.18
71630;BMP280;59479;51.902;8.212;2023-04-06T12:03:48;100997.97;;;14.06
71630;BMP280;59479;51.902;8.212;2023-04-06T12:06:14;101007.13;;;14.20
71630;BMP280;59479;51.902;8.212;2023-04-06T12:08:40;100997.69;;;14.37
71630;BMP280;59479;51.902;8.212;2023-04-06T12:11:05;100987.44;;;14.49
71630;BMP280;59479;51.902;8.212;2023-04-06T12:13:31;100989.09;;;14.51
71630;BMP280;59479;51.902;8.212;2023-04-06T12:15:56;100982.53;;;14.34
71630;BMP280;59479;51.902;8.212;2023-04-06T12:18:21;100995.16;;;14.35
71630;BMP280;59479;51.902;8.212;2023-04-06T12:20:47;100995.97;;;14.40
71630;BMP280;59479;51.902;8.212;2023-04-06T12:23:12;100989.06;;;14.53
71630;BMP280;59479;51.902;8.212;2023-04-06T12:25:39;100991.59;;;14.53
71630;BMP280;59479;51.902;8.212;2023-04-06T12:28:05;100986.50;;;14.59
71630;BMP280;59479;51.902;8.212;2023-04-06T12:30:31;100987.22;;;14.69
71630;BMP280;59479;51.902;8.212;2023-04-06T12:32:57;100982.91;;;14.76
71630;BMP280;59479;51.902;8.212;2023-04-06T12:35:22;100985.44;;;14.76
71630;BMP280;59479;51.902;8.212;2023-04-06T12:37:48;100982.13;;;14.72
71630;BMP280;59479;51.902;8.212;2023-04-06T12:40:13;100976.88;;;14.89
71630;BMP280;59479;51.902;8.212;2023-04-06T12:42:40;100976.84;;;14.92
71630;BMP280;59479;51.902;8.212;2023-04-06T12:45:08;100972.63;;;14.89
71630;BMP280;59479;51.902;8.212;2023-04-06T12:47:34;100978.50;;;14.93
71630;BMP280;59479;51.902;8.212;2023-04-06T12:50:01;100984.28;;;15.02
71630;BMP280;59479;51.902;8.212;2023-04-06T12:52:26;100977.13;;;14.68
71630;BMP280;59479;51.902;8.212;2023-04-06T12:54:52;100982.09;;;14.74
71630;BMP280;59479;51.902;8.212;2023-04-06T12:57:17;100978.81;;;14.66
71630;BMP280;59479;51.902;8.212;2023-04-06T12:59:43;100968.84;;;14.54
71630;BMP280;59479;51.902;8.212;2023-04-06T13:02:09;100973.81;;;14.62
71630;BMP280;59479;51.902;8.212;2023-04-06T13:04:35;100966.44;;;14.41
71630;BMP280;59479;51.902;8.212;2023-04-06T13:07:01;100959.59;;;14.52
71630;BMP280;59479;51.902;8.212;2023-04-06T13:09:26;100954.31;;;14.71
71630;BMP280;59479;51.902;8.212;2023-04-06T13:11:51;100960.69;;;15.02
71630;BMP280;59479;51.902;8.212;2023-04-06T13:14:17;100954.53;;;15.23
71630;BMP280;59479;51.902;8.212;2023-04-06T13:16:42;100959.09;;;14.95
71630;BMP280;59479;51.902;8.212;2023-04-06T13:19:08;100953.31;;;14.84
71630;BMP280;59479;51.902;8.212;2023-04-06T13:21:33;100949.97;;;14.82
71630;BMP280;59479;51.902;8.212;2023-04-06T13:23:58;100959.16;;;14.89
71630;BMP280;59479;51.902;8.212;2023-04-06T13:26:24;100949.66;;;15.04
71630;BMP280;59479;51.902;8.212;2023-04-06T13:28:50;100948.66;;;15.20
71630;BMP280;59479;51.902;8.212;2023-04-06T13:31:15;100947.75;;;15.22
71630;BMP280;59479;51.902;8.212;2023-04-06T13:33:41;100947.00;;;15.16
71630;BMP280;59479;51.902;8.212;2023-04-06T13:36:07;100950.63;;;14.94
71630;BMP280;59479;51.902;8.212;2023-04-06T13:38:33;100941.97;;;15.13
71630;BMP280;59479;51.902;8.212;2023-04-06T13:40:59;100948.50;;;15.32
71630;BMP280;59479;51.902;8.212;2023-04-06T13:43:24;100938.22;;;15.39
71630;BMP280;59479;51.902;8.212;2023-04-06T13:45:52;100928.09;;;15.39
71630;BMP280;59479;51.902;8.212;2023-04-06T13:48:19;100938.34;;;15.32
71630;BMP280;59479;51.902;8.212;2023-04-06T13:50:45;100952.78;;;15.25
71630;BMP280;59479;51.902;8.212;2023-04-06T13:53:11;100945.19;;;15.27
71630;BMP280;59479;51.902;8.212;2023-04-06T13:55:36;100946.19;;;15.12
71630;BMP280;59479;51.902;8.212;2023-04-06T13:58:01;100945.13;;;15.31
71630;BMP280;59479;51.902;8.212;2023-04-06T14:00:27;100945.94;;;15.33
71630;BMP280;59479;51.902;8.212;2023-04-06T14:02:53;100930.63;;;15.39
71630;BMP280;59479;51.902;8.212;2023-04-06T14:05:19;100938.94;;;15.50
71630;BMP280;59479;51.902;8.212;2023-04-06T14:07:45;100938.72;;;15.62
71630;BMP280;59479;51.902;8.212;2023-04-06T14:10:10;100934.69;;;15.51
71630;BMP280;59479;51.902;8.212;2023-04-06T14:12:43;100925.16;;;15.66
71630;BMP280;59479;51.902;8.212;2023-04-06T14:15:11;100925.69;;;15.84
71630;BMP280;59479;51.902;8.212;2023-04-06T14:17:36;100930.06;;;15.76
71630;BMP280;59479;51.902;8.212;2023-04-06T14:20:03;100931.84;;;15.70
71630;BMP280;59479;51.902;8.212;2023-04-06T14:22:28;100934.63;;;15.55
71630;BMP280;59479;51.902;8.212;2023-04-06T14:24:54;100931.09;;;15.65
71630;BMP280;59479;51.902;8.212;2023-04-06T14:27:19;100930.91;;;15.77
71630;BMP280;59479;51.902;8.212;2023-04-06T14:29:44;100924.81;;;15.87
71630;BMP280;59479;51.902;8.212;2023-04-06T14:32:10;100923.88;;;15.91
71630;BMP280;59479;51.902;8.212;2023-04-06T14:34:39;100933.31;;;15.83
71630;BMP280;59479;51.902;8.212;2023-04-06T14:37:05;100923.06;;;15.90
71630;BMP280;59479;51.902;8.212;2023-04-06T14:39:30;100920.38;;;15.97
71630;BMP280;59479;51.902;8.212;2023-04-06T14:41:55;100913.38;;;16.13
71630;BMP280;59479;51.902;8.212;2023-04-06T14:44:21;100912.41;;;16.21
71630;BMP280;59479;51.902;8.212;2023-04-06T14:46:47;100911.84;;;16.03
71630;BMP280;59479;51.902;8.212;2023-04-06T14:49:12;100908.69;;;15.91
71630;BMP280;59479;51.902;8.212;2023-04-06T14:51:37;100907.66;;;16.00
71630;BMP280;59479;51.902;8.212;2023-04-06T14:54:04;100904.38;;;15.96
71630;BMP280;59479;51.902;8.212;2023-04-06T14:56:29;100908.50;;;16.01
71630;BMP280;59479;51.902;8.212;2023-04-06T14:58:59;100907.13;;;15.82
71630;BMP280;59479;51.902;8.212;2023-04-06T15:01:27;100921.78;;;15.65